createdAt,value
2018-03-27T00:00:56.280Z,6.87
2018-03-27T00:03:23.698Z,6.94
2018-03-27T00:05:51.053Z,6.96
2018-03-27T00:08:18.448Z,7.01
2018-03-27T00:10:45.832Z,7.02
2018-03-27T00:13:13.220Z,7.08
2018-03-27T00:15:40.605Z,7.09
2018-03-27T00:18:07.997Z,7.12
2018-03-27T00:20:35.403Z,7.10
2018-03-27T00:23:02.788Z,7.04
2018-03-27T00:25:30.179Z,6.98
2018-03-27T00:28:09.209Z,6.98
2018-03-27T00:30:48.365Z,7.01
2018-03-27T00:33:27.327Z,7.01
2018-03-27T00:36:06.512Z,6.99
2018-03-27T00:38:45.768Z,6.99
2018-03-27T00:44:26.064Z,6.80
2018-03-27T00:46:53.479Z,6.73
2018-03-27T00:49:20.864Z,6.70
2018-03-27T00:51:48.240Z,6.62
2018-03-27T00:54:15.632Z,6.65
2018-03-27T00:56:43.021Z,6.66
2018-03-27T00:59:10.408Z,6.68
2018-03-27T01:01:37.793Z,6.69
2018-03-27T01:04:05.188Z,6.72
2018-03-27T01:06:32.572Z,6.71
2018-03-27T01:08:59.954Z,6.71
2018-03-27T01:11:27.348Z,6.67
2018-03-27T01:13:56.977Z,6.63
2018-03-27T01:16:24.364Z,6.53
2018-03-27T01:18:51.744Z,6.43
2018-03-27T01:21:19.136Z,6.34
2018-03-27T01:23:46.520Z,6.26
2018-03-27T01:26:13.905Z,6.16
2018-03-27T01:28:41.301Z,6.07
2018-03-27T01:31:08.676Z,5.99
2018-03-27T01:33:36.071Z,5.91
2018-03-27T01:36:03.453Z,5.89
2018-03-27T01:38:30.837Z,5.82
2018-03-27T01:40:58.220Z,5.75
2018-03-27T01:43:25.612Z,5.71
2018-03-27T01:45:52.992Z,5.65
2018-03-27T01:48:20.375Z,5.56
2018-03-27T01:50:47.760Z,5.52
2018-03-27T01:53:15.144Z,5.48
2018-03-27T01:55:42.540Z,5.43
2018-03-27T01:58:09.920Z,5.38
2018-03-27T02:00:37.305Z,5.36
2018-03-27T02:03:04.692Z,5.34
2018-03-27T02:05:32.072Z,5.29
2018-03-27T02:07:59.452Z,5.24
2018-03-27T02:10:26.848Z,5.20
2018-03-27T02:12:59.901Z,5.15
2018-03-27T02:15:32.812Z,5.09
2018-03-27T02:18:05.864Z,5.05
2018-03-27T02:20:38.866Z,5.00
2018-03-27T02:23:12.180Z,4.96
2018-03-27T02:25:39.576Z,4.95
2018-03-27T02:28:06.963Z,4.91
2018-03-27T02:30:34.344Z,4.92
2018-03-27T02:33:01.741Z,4.84
2018-03-27T02:35:29.117Z,4.81
2018-03-27T02:37:56.533Z,4.75
2018-03-27T02:40:23.917Z,4.72
2018-03-27T02:42:51.300Z,4.68
2018-03-27T02:45:18.688Z,4.65
2018-03-27T02:47:46.087Z,4.65
2018-03-27T02:50:13.471Z,4.63
2018-03-27T02:52:40.849Z,4.54
2018-03-27T02:55:08.240Z,4.49
2018-03-27T02:57:35.628Z,4.45
2018-03-27T03:00:03.040Z,4.39
2018-03-27T03:02:30.436Z,4.37
2018-03-27T03:04:57.823Z,4.39
2018-03-27T03:07:25.216Z,4.35
2018-03-27T03:09:52.602Z,4.32
2018-03-27T03:12:19.999Z,4.29
2018-03-27T03:14:47.392Z,4.25
2018-03-27T03:17:14.781Z,4.21
2018-03-27T03:19:42.173Z,4.18
2018-03-27T03:22:09.576Z,4.10
2018-03-27T03:24:36.969Z,4.08
2018-03-27T03:27:04.361Z,4.04
2018-03-27T03:29:31.756Z,4.02
2018-03-27T03:31:59.152Z,3.99
2018-03-27T03:34:26.558Z,4.00
2018-03-27T03:36:53.942Z,3.95
2018-03-27T03:39:21.336Z,4.01
2018-03-27T03:41:48.733Z,4.02
2018-03-27T03:44:16.120Z,3.98
2018-03-27T03:46:43.520Z,3.94
2018-03-27T03:49:10.917Z,3.92
2018-03-27T03:51:38.313Z,3.92
2018-03-27T03:54:05.711Z,3.88
2018-03-27T03:56:33.104Z,3.85
2018-03-27T03:59:00.508Z,3.78
2018-03-27T04:01:27.896Z,3.76
2018-03-27T04:03:55.288Z,3.79
2018-03-27T04:06:22.689Z,3.81
2018-03-27T04:08:50.081Z,3.77
2018-03-27T04:11:17.481Z,3.65
2018-03-27T04:13:44.874Z,3.73
2018-03-27T04:16:12.270Z,3.82
2018-03-27T04:18:39.660Z,3.87
2018-03-27T04:21:07.093Z,3.80
2018-03-27T04:23:34.482Z,3.80
2018-03-27T04:26:01.895Z,3.82
2018-03-27T04:28:29.285Z,3.72
2018-03-27T04:30:56.689Z,3.73
2018-03-27T04:33:24.080Z,3.85
2018-03-27T04:35:51.468Z,3.82
2018-03-27T04:38:18.871Z,3.81
2018-03-27T04:40:46.316Z,3.80
2018-03-27T04:43:13.664Z,3.83
2018-03-27T04:45:41.061Z,3.84
2018-03-27T04:48:08.457Z,3.85
2018-03-27T04:50:35.848Z,3.79
2018-03-27T04:53:03.256Z,3.76
2018-03-27T04:55:30.647Z,3.77
2018-03-27T04:57:58.047Z,3.76
2018-03-27T05:00:25.448Z,3.78
2018-03-27T05:02:52.859Z,3.73
2018-03-27T05:05:20.233Z,3.67
2018-03-27T05:07:47.692Z,3.63
2018-03-27T05:10:15.088Z,3.68
2018-03-27T05:12:42.477Z,3.65
2018-03-27T05:15:09.877Z,3.70
2018-03-27T05:17:37.261Z,3.75
2018-03-27T05:20:04.661Z,3.71
2018-03-27T05:22:32.052Z,3.69
2018-03-27T05:24:59.436Z,3.71
2018-03-27T05:27:26.836Z,3.63
2018-03-27T05:29:54.228Z,3.71
2018-03-27T05:32:21.629Z,3.65
2018-03-27T05:34:49.020Z,3.61
2018-03-27T05:37:16.420Z,3.64
2018-03-27T05:39:43.813Z,3.70
2018-03-27T05:42:11.652Z,3.75
2018-03-27T05:44:39.146Z,3.64
2018-03-27T05:47:06.568Z,3.65
2018-03-27T05:49:33.965Z,3.70
2018-03-27T05:52:01.376Z,3.65
2018-03-27T05:54:28.768Z,3.68
2018-03-27T05:56:56.168Z,3.75
2018-03-27T05:59:23.578Z,3.79
2018-03-27T06:01:50.964Z,3.85
2018-03-27T06:04:18.359Z,3.91
2018-03-27T06:06:45.746Z,3.91
2018-03-27T06:09:13.154Z,3.96
2018-03-27T06:11:40.541Z,4.00
2018-03-27T06:14:07.981Z,4.05
2018-03-27T06:16:52.173Z,4.10
2018-03-27T06:19:19.573Z,4.10
2018-03-27T06:21:46.987Z,4.14
2018-03-27T06:24:14.369Z,4.15
2018-03-27T06:26:41.757Z,4.19
2018-03-27T06:29:09.168Z,4.20
2018-03-27T06:31:36.585Z,4.33
2018-03-27T06:34:03.971Z,4.39
2018-03-27T06:36:31.414Z,4.45
2018-03-27T06:38:58.810Z,4.48
2018-03-27T06:41:26.188Z,4.57
2018-03-27T06:43:53.577Z,4.65
2018-03-27T06:46:20.965Z,4.61
2018-03-27T06:48:48.364Z,4.68
2018-03-27T06:51:15.757Z,4.81
2018-03-27T06:53:43.161Z,4.85
2018-03-27T06:56:10.543Z,4.94
2018-03-27T06:58:37.936Z,5.01
2018-03-27T07:01:05.324Z,5.08
2018-03-27T07:03:32.750Z,5.21
2018-03-27T07:06:00.135Z,5.36
2018-03-27T07:08:27.573Z,5.37
2018-03-27T07:10:54.969Z,5.41
2018-03-27T07:13:22.401Z,5.50
2018-03-27T07:15:49.851Z,5.54
2018-03-27T07:18:17.220Z,5.61
2018-03-27T07:20:44.705Z,5.62
2018-03-27T07:23:12.072Z,5.68
2018-03-27T07:25:39.466Z,5.69
2018-03-27T07:28:06.856Z,5.85
2018-03-27T07:30:34.253Z,5.86
2018-03-27T07:33:01.623Z,5.94
2018-03-27T07:35:29.007Z,5.97
2018-03-27T07:37:56.401Z,6.08
2018-03-27T07:40:23.783Z,6.19
2018-03-27T07:42:51.172Z,6.27
2018-03-27T07:45:18.561Z,6.43
2018-03-27T07:47:45.944Z,6.60
2018-03-27T07:50:13.408Z,6.71
2018-03-27T07:52:40.792Z,6.83
2018-03-27T07:55:08.173Z,6.97
2018-03-27T07:57:35.565Z,7.06
2018-03-27T08:00:02.958Z,7.10
2018-03-27T08:02:30.345Z,7.22
2018-03-27T08:04:57.729Z,7.24
2018-03-27T08:07:25.127Z,7.29
2018-03-27T08:09:52.510Z,7.31
2018-03-27T08:12:19.905Z,7.49
2018-03-27T08:14:47.296Z,7.72
2018-03-27T08:17:14.679Z,7.85
2018-03-27T08:19:42.068Z,8.06
2018-03-27T08:22:09.465Z,8.06
2018-03-27T08:24:36.860Z,8.11
2018-03-27T08:27:04.240Z,8.26
2018-03-27T08:29:31.713Z,8.45
2018-03-27T08:31:59.114Z,8.51
2018-03-27T08:34:26.595Z,8.70
2018-03-27T08:36:54.135Z,8.81
2018-03-27T08:39:21.521Z,8.92
2018-03-27T08:41:48.912Z,9.02
2018-03-27T08:44:16.293Z,9.23
2018-03-27T08:46:43.684Z,9.42
2018-03-27T08:49:11.083Z,9.37
2018-03-27T08:51:38.472Z,9.37
2018-03-27T08:54:05.873Z,9.41
2018-03-27T08:56:33.327Z,9.60
2018-03-27T08:59:00.773Z,9.86
2018-03-27T09:01:28.196Z,9.84
2018-03-27T09:03:56.523Z,10.00
2018-03-27T09:06:23.928Z,9.83
2018-03-27T09:08:51.585Z,9.77
2018-03-27T09:11:18.961Z,9.68
2018-03-27T09:13:46.348Z,9.58
2018-03-27T09:16:14.817Z,9.68
2018-03-27T09:18:42.200Z,9.75
2018-03-27T09:21:09.585Z,9.98
2018-03-27T09:23:36.973Z,10.38
2018-03-27T09:26:04.448Z,10.67
2018-03-27T09:28:31.860Z,10.93
2018-03-27T09:30:59.236Z,10.93
2018-03-27T09:33:26.627Z,11.03
2018-03-27T09:35:54.020Z,11.14
2018-03-27T09:38:21.404Z,11.24
2018-03-27T09:40:49.523Z,11.39
2018-03-27T09:43:16.906Z,11.48
2018-03-27T09:45:44.296Z,11.57
2018-03-27T09:48:18.392Z,11.62
2018-03-27T09:50:45.775Z,11.59
2018-03-27T09:53:13.216Z,11.80
2018-03-27T09:55:40.598Z,11.69
2018-03-27T09:58:07.995Z,11.52
2018-03-27T10:00:41.026Z,11.42
2018-03-27T10:03:08.418Z,11.48
2018-03-27T10:05:35.797Z,11.39
2018-03-27T10:08:03.197Z,11.40
2018-03-27T10:10:30.577Z,11.47
2018-03-27T10:12:57.975Z,11.72
2018-03-27T10:15:25.366Z,11.96
2018-03-27T10:17:52.758Z,11.91
2018-03-27T10:20:20.149Z,12.18
2018-03-27T10:22:48.449Z,12.34
2018-03-27T10:25:15.840Z,12.41
2018-03-27T10:27:43.232Z,12.31
2018-03-27T10:30:10.625Z,12.04
2018-03-27T10:32:38.009Z,11.95
2018-03-27T10:35:05.389Z,11.99
2018-03-27T10:37:32.777Z,11.93
2018-03-27T10:40:00.164Z,12.09
2018-03-27T10:42:27.551Z,12.10
2018-03-27T10:44:54.936Z,12.21
2018-03-27T10:47:22.323Z,12.21
2018-03-27T10:49:49.744Z,12.17
2018-03-27T10:52:17.132Z,12.24
2018-03-27T10:54:44.512Z,12.35
2018-03-27T10:57:11.894Z,12.39
2018-03-27T10:59:39.282Z,12.32
2018-03-27T11:02:06.682Z,12.40
2018-03-27T11:04:34.074Z,12.18
2018-03-27T11:07:01.448Z,12.09
2018-03-27T11:09:28.830Z,12.05
2018-03-27T11:11:56.213Z,12.23
2018-03-27T11:14:23.591Z,12.30
2018-03-27T11:16:51.412Z,12.63
2018-03-27T11:19:18.797Z,12.86
2018-03-27T11:21:46.181Z,13.12
2018-03-27T11:24:13.574Z,13.04
2018-03-27T11:26:40.956Z,13.14
2018-03-27T11:29:08.353Z,13.16
2018-03-27T11:31:35.740Z,12.93
2018-03-27T11:34:03.131Z,12.97
2018-03-27T11:36:30.513Z,12.95
2018-03-27T11:38:57.896Z,13.17
2018-03-27T11:41:25.289Z,13.34
2018-03-27T11:43:52.672Z,13.70
2018-03-27T11:46:20.052Z,13.76
2018-03-27T11:48:47.449Z,13.88
2018-03-27T11:51:14.825Z,14.15
2018-03-27T11:53:42.220Z,14.68
2018-03-27T11:56:09.608Z,14.85
2018-03-27T11:58:36.995Z,14.72
2018-03-27T12:01:04.397Z,14.54
2018-03-27T12:03:31.776Z,14.99
2018-03-27T12:05:59.169Z,15.19
2018-03-27T12:08:26.552Z,15.28
2018-03-27T12:10:53.960Z,15.19
2018-03-27T12:13:21.341Z,15.05
2018-03-27T12:15:48.725Z,14.75
2018-03-27T12:18:16.113Z,14.78
2018-03-27T12:20:43.504Z,15.09
2018-03-27T12:23:10.884Z,15.05
2018-03-27T12:25:38.281Z,15.08
2018-03-27T12:28:05.660Z,15.08
2018-03-27T12:30:33.057Z,15.11
2018-03-27T12:33:00.436Z,14.74
2018-03-27T12:35:27.833Z,14.61
2018-03-27T12:37:55.216Z,14.36
2018-03-27T12:40:22.597Z,14.29
2018-03-27T12:42:49.992Z,13.93
2018-03-27T12:45:17.395Z,13.67
2018-03-27T12:47:44.810Z,13.46
2018-03-27T12:50:12.149Z,13.36
2018-03-27T12:52:39.544Z,13.34
2018-03-27T12:55:06.928Z,13.13
2018-03-27T12:57:34.913Z,13.10
2018-03-27T13:00:02.292Z,13.19
2018-03-27T13:02:29.684Z,13.23
2018-03-27T13:04:57.064Z,13.19
2018-03-27T13:07:24.452Z,13.23
2018-03-27T13:09:51.835Z,13.16
2018-03-27T13:12:19.227Z,12.93
2018-03-27T13:14:46.612Z,12.92
2018-03-27T13:17:14.000Z,12.88
2018-03-27T13:19:41.389Z,12.81
2018-03-27T13:22:08.779Z,12.77
2018-03-27T13:24:36.160Z,12.64
2018-03-27T13:27:03.548Z,12.51
2018-03-27T13:29:30.936Z,12.54
2018-03-27T13:31:58.332Z,12.40
2018-03-27T13:34:25.720Z,12.41
2018-03-27T13:36:53.116Z,12.40
2018-03-27T13:39:20.500Z,12.36
2018-03-27T13:41:47.896Z,12.34
2018-03-27T13:44:15.290Z,12.28
2018-03-27T13:46:42.895Z,12.26
2018-03-27T13:49:10.284Z,12.17
2018-03-27T13:51:37.664Z,11.96
2018-03-27T13:54:05.065Z,11.87
2018-03-27T13:56:32.448Z,11.94
2018-03-27T13:58:59.844Z,11.86
2018-03-27T14:01:27.237Z,11.85
2018-03-27T14:03:54.628Z,11.83
2018-03-27T14:06:22.017Z,11.80
2018-03-27T14:08:49.404Z,11.95
2018-03-27T14:11:16.867Z,12.04
2018-03-27T14:13:44.183Z,12.05
2018-03-27T14:16:11.572Z,12.08
2018-03-27T14:18:38.953Z,12.13
2018-03-27T14:21:06.344Z,12.13
2018-03-27T14:23:33.724Z,12.11
2018-03-27T14:26:01.116Z,12.07
2018-03-27T14:28:28.502Z,11.99
2018-03-27T14:30:55.884Z,11.99
2018-03-27T14:33:23.264Z,11.96
2018-03-27T14:35:50.648Z,11.95
2018-03-27T14:38:18.084Z,12.03
2018-03-27T14:40:45.424Z,11.92
2018-03-27T14:43:12.823Z,11.93
2018-03-27T14:45:40.197Z,11.94
2018-03-27T14:48:07.600Z,11.86
2018-03-27T14:50:34.974Z,11.70
2018-03-27T14:53:02.386Z,11.54
2018-03-27T14:55:29.765Z,11.32
2018-03-27T14:57:57.165Z,11.30
2018-03-27T15:00:24.548Z,11.25
2018-03-27T15:02:51.948Z,11.17
2018-03-27T15:05:19.337Z,11.16
2018-03-27T15:07:46.759Z,11.10
2018-03-27T15:10:14.153Z,11.04
2018-03-27T15:12:41.529Z,11.03
2018-03-27T15:15:08.916Z,10.98
2018-03-27T15:17:36.309Z,10.93
2018-03-27T15:20:03.684Z,10.76
2018-03-27T15:22:31.065Z,10.74
2018-03-27T15:24:58.456Z,10.73
2018-03-27T15:27:25.856Z,10.82
2018-03-27T15:29:53.252Z,10.82
2018-03-27T15:32:20.628Z,10.68
2018-03-27T15:34:48.029Z,10.54
2018-03-27T15:37:15.400Z,10.47
2018-03-27T15:39:42.850Z,10.41
2018-03-27T15:42:10.201Z,10.49
2018-03-27T15:44:37.596Z,10.42
2018-03-27T15:47:04.986Z,10.41
2018-03-27T15:49:32.434Z,10.35
2018-03-27T15:51:59.808Z,10.37
2018-03-27T15:54:27.204Z,10.34
2018-03-27T15:56:54.587Z,10.30
2018-03-27T15:59:21.993Z,10.30
2018-03-27T16:01:49.368Z,10.16
2018-03-27T16:04:16.760Z,10.17
2018-03-27T16:06:44.145Z,10.15
2018-03-27T16:09:11.524Z,10.14
2018-03-27T16:11:38.916Z,10.03
2018-03-27T16:14:07.199Z,10.01
2018-03-27T16:16:34.612Z,10.00
2018-03-27T16:19:02.005Z,9.92
2018-03-27T16:21:29.388Z,9.83
2018-03-27T16:23:56.769Z,9.79
2018-03-27T16:26:24.209Z,9.71
2018-03-27T16:28:51.601Z,9.58
2018-03-27T16:31:19.010Z,9.38
2018-03-27T16:33:46.405Z,9.28
2018-03-27T16:36:13.788Z,9.19
2018-03-27T16:38:41.168Z,9.11
2018-03-27T16:41:08.556Z,9.02
2018-03-27T16:43:35.930Z,8.98
2018-03-27T16:46:03.324Z,8.93
2018-03-27T16:48:30.701Z,8.97
2018-03-27T16:50:58.085Z,8.97
2018-03-27T16:53:25.479Z,8.92
2018-03-27T16:55:52.849Z,8.88
2018-03-27T16:58:20.243Z,8.87
2018-03-27T17:00:47.695Z,8.85
2018-03-27T17:03:15.081Z,8.87
2018-03-27T17:05:42.458Z,8.87
2018-03-27T17:08:09.868Z,8.72
2018-03-27T17:10:38.272Z,8.74
2018-03-27T17:13:05.716Z,8.70
2018-03-27T17:15:33.789Z,8.70
2018-03-27T17:18:01.331Z,8.72
2018-03-27T17:20:29.728Z,8.65
2018-03-27T17:22:57.116Z,8.59
2018-03-27T17:25:24.503Z,8.64
2018-03-27T17:27:51.898Z,8.56
2018-03-27T17:30:19.268Z,8.55
2018-03-27T17:32:46.644Z,8.59
2018-03-27T17:35:14.136Z,8.55
2018-03-27T17:37:41.510Z,8.50
2018-03-27T17:40:08.912Z,8.54
2018-03-27T17:42:36.291Z,8.57
2018-03-27T17:45:03.714Z,8.50
2018-03-27T17:47:31.126Z,8.46
2018-03-27T17:49:58.476Z,8.39
2018-03-27T17:52:25.853Z,8.38
2018-03-27T17:54:54.137Z,8.33
2018-03-27T17:57:21.540Z,8.42
2018-03-27T17:59:50.096Z,8.26
2018-03-27T18:02:17.513Z,8.14
2018-03-27T18:04:44.904Z,8.20
2018-03-27T18:07:12.328Z,8.17
2018-03-27T18:09:40.396Z,8.21
2018-03-27T18:12:07.784Z,8.15
2018-03-27T18:14:35.278Z,8.20
2018-03-27T18:17:02.733Z,8.17
2018-03-27T18:19:31.077Z,8.27
2018-03-27T18:21:58.457Z,8.07
2018-03-27T18:24:26.272Z,8.21
2018-03-27T18:26:53.899Z,8.26
2018-03-27T18:29:21.388Z,8.26
2018-03-27T18:31:48.928Z,8.22
2018-03-27T18:34:17.504Z,8.18
2018-03-27T18:36:44.894Z,8.20
2018-03-27T18:39:12.341Z,8.26
2018-03-27T18:41:39.733Z,8.21
2018-03-27T18:44:07.148Z,8.22
2018-03-27T18:46:34.543Z,8.06
2018-03-27T18:49:01.996Z,8.10
2018-03-27T18:51:29.377Z,8.10
2018-03-27T18:53:56.801Z,8.16
2018-03-27T18:56:24.263Z,8.14
2018-03-27T18:58:51.712Z,8.08
2018-03-27T19:01:19.089Z,8.06
2018-03-27T19:03:46.477Z,8.09
2018-03-27T19:06:13.862Z,8.00
2018-03-27T19:08:41.265Z,8.10
2018-03-27T19:11:08.645Z,8.13
2018-03-27T19:13:36.048Z,8.13
2018-03-27T19:16:03.522Z,8.18
2018-03-27T19:18:30.859Z,8.16
2018-03-27T19:20:58.240Z,8.15
2018-03-27T19:23:25.741Z,8.16
2018-03-27T19:25:53.162Z,8.17
2018-03-27T19:28:20.925Z,8.25
2018-03-27T19:30:48.303Z,8.07
2018-03-27T19:33:15.677Z,8.07
2018-03-27T19:35:43.065Z,8.19
2018-03-27T19:38:10.436Z,8.25
2018-03-27T19:40:37.826Z,8.24
2018-03-27T19:43:05.200Z,8.23
2018-03-27T19:45:32.586Z,8.14
2018-03-27T19:47:59.964Z,8.17
2018-03-27T19:50:27.348Z,8.24
2018-03-27T19:52:54.724Z,8.26
2018-03-27T19:55:22.110Z,8.20
2018-03-27T19:57:49.486Z,8.21
2018-03-27T20:00:16.876Z,8.21
2018-03-27T20:02:44.254Z,8.24
2018-03-27T20:05:11.640Z,8.12
2018-03-27T20:07:39.030Z,8.12
2018-03-27T20:10:06.409Z,8.11
2018-03-27T20:12:33.792Z,8.11
2018-03-27T20:15:01.168Z,8.11
2018-03-27T20:17:28.558Z,8.08
2018-03-27T20:19:55.943Z,7.99
2018-03-27T20:22:23.333Z,7.96
2018-03-27T20:24:50.725Z,7.97
2018-03-27T20:27:18.155Z,7.98
2018-03-27T20:29:45.488Z,8.06
2018-03-27T20:32:12.868Z,8.08
2018-03-27T20:34:40.249Z,8.16
2018-03-27T20:37:07.637Z,7.95
2018-03-27T20:39:35.021Z,7.89
2018-03-27T20:42:02.400Z,7.92
2018-03-27T20:44:29.777Z,7.98
2018-03-27T20:46:57.179Z,7.91
2018-03-27T20:49:24.540Z,7.88
2018-03-27T20:51:51.935Z,7.92
2018-03-27T20:54:19.312Z,7.92
2018-03-27T20:56:46.750Z,7.90
2018-03-27T20:59:14.087Z,7.90
2018-03-27T21:01:41.460Z,7.93
2018-03-27T21:04:08.851Z,7.92
2018-03-27T21:06:36.220Z,7.84
2018-03-27T21:09:03.620Z,7.76
2018-03-27T21:11:30.996Z,7.87
2018-03-27T21:13:58.380Z,7.80
2018-03-27T21:16:25.763Z,7.75
2018-03-27T21:18:53.152Z,7.78
2018-03-27T21:21:20.545Z,7.79
2018-03-27T21:23:47.933Z,7.85
2018-03-27T21:26:15.309Z,7.93
2018-03-27T21:28:42.700Z,7.94
2018-03-27T21:31:10.084Z,7.98
2018-03-27T21:33:37.456Z,7.90
2018-03-27T21:36:04.844Z,7.84
2018-03-27T21:38:32.245Z,7.80
2018-03-27T21:40:59.630Z,7.76
2018-03-27T21:43:27.012Z,7.73
2018-03-27T21:45:54.401Z,7.76
2018-03-27T21:48:21.786Z,7.82
2018-03-27T21:50:49.173Z,7.78
2018-03-27T21:53:16.552Z,7.77
2018-03-27T21:55:43.943Z,7.77
2018-03-27T21:58:11.363Z,7.86
2018-03-27T22:00:38.722Z,7.89
2018-03-27T22:03:06.101Z,8.01
2018-03-27T22:05:33.492Z,8.05
2018-03-27T22:08:00.871Z,8.09
2018-03-27T22:10:28.272Z,8.08
2018-03-27T22:12:55.656Z,8.08
2018-03-27T22:15:23.040Z,8.14
2018-03-27T22:17:50.420Z,8.16
2018-03-27T22:20:17.797Z,8.16
2018-03-27T22:22:45.183Z,8.21
2018-03-27T22:25:12.560Z,8.21
2018-03-27T22:27:39.944Z,8.23
2018-03-27T22:30:07.325Z,8.16
2018-03-27T22:32:34.716Z,8.18
2018-03-27T22:35:02.088Z,8.18
2018-03-27T22:37:29.477Z,8.20
2018-03-27T22:39:56.869Z,8.24
2018-03-27T22:42:24.244Z,8.28
2018-03-27T22:44:51.628Z,8.29
2018-03-27T22:47:19.017Z,8.32
2018-03-27T22:49:46.397Z,8.36
2018-03-27T22:52:13.783Z,8.33
2018-03-27T22:54:41.174Z,8.30
2018-03-27T22:57:08.545Z,8.29
2018-03-27T22:59:35.924Z,8.32
2018-03-27T23:02:03.304Z,8.38
2018-03-27T23:04:30.692Z,8.35
2018-03-27T23:06:58.071Z,8.26
2018-03-27T23:09:25.676Z,8.36
2018-03-27T23:11:53.291Z,8.30
2018-03-27T23:14:20.672Z,8.43
2018-03-27T23:16:48.063Z,8.41
2018-03-27T23:19:15.445Z,8.32
2018-03-27T23:21:42.820Z,8.39
2018-03-27T23:24:10.210Z,8.43
2018-03-27T23:26:37.591Z,8.47
2018-03-27T23:29:04.972Z,8.44
2018-03-27T23:31:32.348Z,8.46
2018-03-27T23:33:59.736Z,8.52
2018-03-27T23:36:27.112Z,8.56
2018-03-27T23:38:54.491Z,8.54
2018-03-27T23:41:21.888Z,8.50
2018-03-27T23:43:49.269Z,8.56
2018-03-27T23:46:16.663Z,8.54
2018-03-27T23:48:44.036Z,8.56
2018-03-27T23:51:11.429Z,8.57
2018-03-27T23:53:38.803Z,8.60
2018-03-27T23:56:06.187Z,8.66
2018-03-27T23:58:33.561Z,8.70
